Terminal Aerodrome Forecast
Issued by NWS

Current Version | Previous Version | Graphics & Text | Print | Product List | Glossary On
Versions: 1 2 3 4 5 6 7 8 9 10 11 12 13 14 15 16 17 18 19 20 21 22
000
FTUS41 KILN 231700
TAFLUK
TAF
KLUK 231739Z 2318/2418 27007KT P6SM BKN190
      TEMPO 2318/2319 5SM -SHRA BKN040
     FM232000 32008KT P6SM BKN100
     FM240000 01006KT P6SM BKN060
     FM240500 36005KT P6SM SCT100
      TEMPO 2407/2411 3SM BR
     FM241400 01009G15KT P6SM SCT035=

USA.gov is the U.S. government's official web portal to all federal, state and local government web resources and services.